createdAt,value
2023-07-29T00:02:32.395Z,99598.00
2023-07-29T00:07:42.255Z,99602.80
2023-07-29T00:12:51.989Z,99605.20
2023-07-29T00:18:01.807Z,99607.00
2023-07-29T00:23:11.475Z,99610.60
2023-07-29T00:28:23.548Z,99608.40
2023-07-29T00:33:33.584Z,99607.60
2023-07-29T00:38:43.409Z,99608.40
2023-07-29T00:43:53.462Z,99614.40
2023-07-29T00:49:03.401Z,99622.20
2023-07-29T00:54:13.114Z,99625.20
2023-07-29T00:59:22.822Z,99619.00
2023-07-29T01:04:32.375Z,99629.80
2023-07-29T01:09:54.004Z,99626.00
2023-07-29T01:15:20.102Z,99632.40
2023-07-29T01:20:34.678Z,99638.60
2023-07-29T01:25:44.450Z,99644.80
2023-07-29T01:31:00.232Z,99638.00
2023-07-29T01:36:18.020Z,99641.60
2023-07-29T01:41:29.758Z,99641.20
2023-07-29T01:46:41.302Z,99642.00
2023-07-29T01:51:51.039Z,99638.60
2023-07-29T01:57:00.702Z,99636.80
2023-07-29T02:02:10.509Z,99644.00
2023-07-29T02:07:20.196Z,99649.00
2023-07-29T02:12:29.824Z,99651.00
2023-07-29T02:17:39.687Z,99655.40
2023-07-29T02:22:49.988Z,99654.80
2023-07-29T02:27:59.501Z,99657.40
2023-07-29T02:33:09.374Z,99663.60
2023-07-29T02:38:19.093Z,99657.40
2023-07-29T02:43:28.555Z,99658.60
2023-07-29T02:48:38.172Z,99664.20
2023-07-29T02:53:47.809Z,99666.00
2023-07-29T02:59:01.435Z,99678.40
2023-07-29T03:04:14.400Z,99689.40
2023-07-29T03:09:23.971Z,99687.80
2023-07-29T03:14:34.372Z,99692.00
2023-07-29T03:19:44.282Z,99694.00
2023-07-29T03:24:53.822Z,99688.40
2023-07-29T03:30:03.326Z,99681.40
2023-07-29T03:35:14.013Z,99688.80
2023-07-29T03:40:23.973Z,99683.20
2023-07-29T03:45:34.209Z,99699.00
2023-07-29T03:50:43.895Z,99693.00
2023-07-29T03:55:53.704Z,99703.40
2023-07-29T04:01:03.606Z,99710.00
2023-07-29T04:06:13.276Z,99711.20
2023-07-29T04:11:23.052Z,99716.80
2023-07-29T04:16:33.101Z,99717.00
2023-07-29T04:21:42.764Z,99728.60
2023-07-29T04:26:52.854Z,99724.40
2023-07-29T04:32:02.951Z,99728.80
2023-07-29T04:37:13.369Z,99722.00
2023-07-29T04:42:23.174Z,99717.40
2023-07-29T04:47:33.474Z,99719.00
2023-07-29T04:52:43.042Z,99724.20
2023-07-29T04:57:52.602Z,99722.00
2023-07-29T05:03:02.570Z,99721.80
2023-07-29T05:08:12.226Z,99726.40
2023-07-29T05:13:22.502Z,99729.20
2023-07-29T05:18:32.154Z,99730.80
2023-07-29T05:23:41.859Z,99730.60
2023-07-29T05:28:51.666Z,99737.80
2023-07-29T05:34:01.396Z,99749.80
2023-07-29T05:39:13.652Z,99747.40
2023-07-29T05:44:23.254Z,99751.60
2023-07-29T05:49:32.787Z,99760.60
2023-07-29T05:54:44.160Z,99759.40
2023-07-29T05:59:54.548Z,99763.60
2023-07-29T06:05:05.451Z,99766.20
2023-07-29T06:10:20.349Z,99770.60
2023-07-29T06:15:30.219Z,99769.20
2023-07-29T06:20:40.175Z,99774.00
2023-07-29T06:25:49.886Z,99776.20
2023-07-29T06:31:00.287Z,99778.60
2023-07-29T06:36:10.688Z,99783.00
2023-07-29T06:41:20.780Z,99782.60
2023-07-29T06:46:30.942Z,99787.00
2023-07-29T06:51:40.462Z,99787.00
2023-07-29T06:56:50.234Z,99790.60
2023-07-29T07:02:01.489Z,99796.00
2023-07-29T07:07:11.864Z,99794.40
2023-07-29T07:12:21.771Z,99799.60
2023-07-29T07:17:31.857Z,99798.60
2023-07-29T07:22:41.732Z,99794.00
2023-07-29T07:27:51.486Z,99793.00
2023-07-29T07:33:01.129Z,99798.00
2023-07-29T07:38:11.313Z,99793.60
2023-07-29T07:43:20.842Z,99786.80
2023-07-29T07:48:30.804Z,99791.20
2023-07-29T07:53:40.590Z,99787.00
2023-07-29T07:58:50.408Z,99783.00
2023-07-29T08:04:00.381Z,99782.80
2023-07-29T08:09:10.086Z,99781.40
2023-07-29T08:14:19.723Z,99772.60
2023-07-29T08:19:29.375Z,99772.40
2023-07-29T08:24:38.981Z,99773.60
2023-07-29T08:29:48.639Z,99776.00
2023-07-29T08:34:58.293Z,99777.60
2023-07-29T08:40:09.860Z,99779.40
2023-07-29T08:45:21.838Z,99774.40
2023-07-29T08:50:32.040Z,99776.60
2023-07-29T08:55:42.012Z,99777.40
2023-07-29T09:00:53.130Z,99776.60
2023-07-29T09:06:05.262Z,99773.20
2023-07-29T09:11:18.520Z,99779.40
2023-07-29T09:16:29.008Z,99772.60
2023-07-29T09:21:43.257Z,99772.00
2023-07-29T09:26:57.049Z,99774.60
2023-07-29T09:32:25.200Z,99778.40
2023-07-29T09:37:36.789Z,99781.60
2023-07-29T09:42:52.908Z,99776.20
2023-07-29T09:48:03.069Z,99771.00
2023-07-29T09:53:13.410Z,99769.80
2023-07-29T09:58:31.222Z,99769.00
2023-07-29T10:03:43.023Z,99769.40
2023-07-29T10:08:55.011Z,99770.40
2023-07-29T10:14:08.771Z,99771.80
2023-07-29T10:19:20.822Z,99769.00
2023-07-29T10:24:35.586Z,99778.60
2023-07-29T10:29:48.572Z,99767.00
2023-07-29T10:34:58.419Z,99767.20
2023-07-29T10:40:13.558Z,99769.60
2023-07-29T10:45:28.019Z,99766.20
2023-07-29T10:50:37.804Z,99771.00
2023-07-29T10:55:48.164Z,99780.00
2023-07-29T11:00:58.678Z,99762.20
2023-07-29T11:06:10.961Z,99766.60
2023-07-29T11:11:20.861Z,99757.20
2023-07-29T11:16:32.504Z,99760.60
2023-07-29T11:21:43.078Z,99766.20
2023-07-29T11:26:53.892Z,99752.80
2023-07-29T11:32:03.669Z,99743.40
2023-07-29T11:37:15.450Z,99741.00
2023-07-29T11:42:25.910Z,99742.80
2023-07-29T11:47:38.473Z,99725.80
2023-07-29T11:52:50.963Z,99716.60
2023-07-29T11:58:01.706Z,99718.00
2023-07-29T12:03:12.504Z,99721.60
2023-07-29T12:08:22.671Z,99707.40
2023-07-29T12:13:32.686Z,99705.20
2023-07-29T12:18:42.694Z,99710.60
2023-07-29T12:23:54.407Z,99696.60
2023-07-29T12:29:13.446Z,99695.00
2023-07-29T12:34:27.643Z,99687.20
2023-07-29T12:39:44.106Z,99673.80
2023-07-29T12:44:53.736Z,99672.20
2023-07-29T12:50:03.481Z,99676.40
2023-07-29T12:55:14.777Z,99677.20
2023-07-29T13:00:24.966Z,99673.00
2023-07-29T13:05:34.630Z,99674.60
2023-07-29T13:10:44.659Z,99681.40
2023-07-29T13:15:54.697Z,99669.00
2023-07-29T13:21:04.701Z,99631.60
2023-07-29T13:26:14.387Z,99660.80
2023-07-29T13:31:28.234Z,99651.60
2023-07-29T13:36:38.314Z,99646.20
2023-07-29T13:41:48.505Z,99644.20
2023-07-29T13:46:58.487Z,99636.60
2023-07-29T13:52:09.391Z,99627.80
2023-07-29T13:57:19.234Z,99625.60
2023-07-29T14:02:28.943Z,99627.00
2023-07-29T14:07:39.820Z,99626.40
2023-07-29T14:12:49.563Z,99627.80
2023-07-29T14:17:59.689Z,99618.00
2023-07-29T14:23:09.734Z,99613.80
2023-07-29T14:28:20.440Z,99609.20
2023-07-29T14:33:30.422Z,99610.40
2023-07-29T14:38:41.214Z,99608.60
2023-07-29T14:43:50.930Z,99592.40
2023-07-29T14:49:01.046Z,99594.00
2023-07-29T14:54:10.682Z,99586.20
2023-07-29T14:59:20.546Z,99588.60
2023-07-29T15:04:30.569Z,99590.20
2023-07-29T15:09:40.266Z,99578.40
2023-07-29T15:14:50.133Z,99571.00
2023-07-29T15:20:00.053Z,99553.60
2023-07-29T15:25:13.681Z,99545.60
2023-07-29T15:30:23.684Z,99547.00
2023-07-29T15:35:39.143Z,99538.00
2023-07-29T15:40:50.325Z,99518.00
2023-07-29T15:46:00.302Z,99515.40
2023-07-29T15:51:10.432Z,99499.80
2023-07-29T15:56:20.129Z,99478.80
2023-07-29T16:01:30.449Z,99488.00
2023-07-29T16:06:40.573Z,99520.60
2023-07-29T16:11:50.609Z,99525.80
2023-07-29T16:17:00.249Z,99477.00
2023-07-29T16:22:10.516Z,99471.60
2023-07-29T16:27:20.541Z,99462.20
2023-07-29T16:32:30.154Z,99490.20
2023-07-29T16:37:39.945Z,99517.20
2023-07-29T16:42:49.533Z,99526.60
2023-07-29T16:47:59.643Z,99536.00
2023-07-29T16:53:09.309Z,99535.80
2023-07-29T16:58:19.483Z,99531.80
2023-07-29T17:03:29.295Z,99530.20
2023-07-29T17:08:38.914Z,99540.20
2023-07-29T17:13:48.805Z,99532.40
2023-07-29T17:18:58.380Z,99534.80
2023-07-29T17:24:08.288Z,99529.40
2023-07-29T17:29:18.147Z,99523.20
2023-07-29T17:34:27.781Z,99522.40
2023-07-29T17:39:42.505Z,99525.60
2023-07-29T17:44:52.725Z,99518.40
2023-07-29T17:50:02.441Z,99515.80
2023-07-29T17:55:12.494Z,99500.60
2023-07-29T18:00:22.349Z,99501.20
2023-07-29T18:05:32.152Z,99505.40
2023-07-29T18:10:45.360Z,99496.40
2023-07-29T18:16:00.415Z,99492.40
2023-07-29T18:21:10.018Z,99485.20
2023-07-29T18:26:19.928Z,99486.60
2023-07-29T18:31:29.487Z,99489.20
2023-07-29T18:36:40.126Z,99513.80
2023-07-29T18:41:51.214Z,99635.20
2023-07-29T18:47:01.334Z,99628.40
2023-07-29T18:52:13.233Z,99640.60
2023-07-29T18:57:26.258Z,99641.80
2023-07-29T19:02:36.059Z,99652.60
2023-07-29T19:07:46.512Z,99650.40
2023-07-29T19:12:58.553Z,99630.60
2023-07-29T19:18:08.528Z,99590.20
2023-07-29T19:23:18.350Z,99580.60
2023-07-29T19:28:28.406Z,99572.60
2023-07-29T19:33:41.908Z,99548.80
2023-07-29T19:38:51.891Z,99551.20
2023-07-29T19:44:16.675Z,99567.00
2023-07-29T19:49:31.830Z,99554.80
2023-07-29T19:54:42.066Z,99540.60
2023-07-29T19:59:52.712Z,99537.20
2023-07-29T20:05:02.465Z,99551.80
2023-07-29T20:10:14.067Z,99558.00
2023-07-29T20:15:24.193Z,99558.20
2023-07-29T20:20:33.990Z,99531.80
2023-07-29T20:25:43.714Z,99548.80
2023-07-29T20:31:00.251Z,99584.00
2023-07-29T20:36:10.520Z,99574.00
2023-07-29T20:41:20.148Z,99565.40
2023-07-29T20:46:30.348Z,99547.80
2023-07-29T20:51:40.250Z,99525.60
2023-07-29T20:56:50.479Z,99518.80
2023-07-29T21:01:59.980Z,99504.40
2023-07-29T21:07:10.481Z,99513.00
2023-07-29T21:12:20.377Z,99495.40
2023-07-29T21:17:30.761Z,99492.00
2023-07-29T21:22:40.292Z,99467.80
2023-07-29T21:27:50.018Z,99442.20
2023-07-29T21:32:59.872Z,99427.20
2023-07-29T21:38:28.196Z,99402.40
2023-07-29T21:43:39.073Z,99403.00
2023-07-29T21:48:48.712Z,99404.00
2023-07-29T21:53:59.154Z,99410.40
2023-07-29T21:59:08.874Z,99411.20
2023-07-29T22:04:18.477Z,99405.60
2023-07-29T22:09:28.059Z,99399.20
2023-07-29T22:14:37.704Z,99395.00
2023-07-29T22:19:47.384Z,99404.80
2023-07-29T22:24:57.963Z,99414.80
2023-07-29T22:30:09.223Z,99426.20
2023-07-29T22:35:19.565Z,99417.40
2023-07-29T22:40:29.198Z,99423.80
2023-07-29T22:45:38.927Z,99427.00
2023-07-29T22:50:49.342Z,99414.40
2023-07-29T22:55:59.022Z,99417.20
2023-07-29T23:01:08.680Z,99413.00
2023-07-29T23:06:18.424Z,99428.20
2023-07-29T23:11:28.022Z,99424.20
2023-07-29T23:16:37.711Z,99431.00
2023-07-29T23:21:47.310Z,99421.80
2023-07-29T23:26:56.955Z,99427.00
2023-07-29T23:32:06.964Z,99428.20
2023-07-29T23:37:16.654Z,99438.00
2023-07-29T23:42:26.176Z,99448.60
2023-07-29T23:47:35.813Z,99464.00
2023-07-29T23:52:45.522Z,99470.20
2023-07-29T23:57:55.423Z,99466.60
